createdAt,value
2017-10-16T00:00:46.592Z,0
2017-10-16T00:01:46.583Z,0
2017-10-16T00:02:46.569Z,0
2017-10-16T00:03:46.563Z,0
2017-10-16T00:04:46.566Z,0
2017-10-16T00:05:46.549Z,0
2017-10-16T00:06:46.549Z,0
2017-10-16T00:07:45.869Z,0
2017-10-16T00:08:46.534Z,0
2017-10-16T00:09:46.183Z,0
2017-10-16T00:10:46.507Z,0
2017-10-16T00:11:46.167Z,0
2017-10-16T00:12:46.509Z,0
2017-10-16T00:13:46.153Z,0
2017-10-16T00:14:46.155Z,0
2017-10-16T00:15:46.472Z,0
2017-10-16T00:16:46.711Z,0
2017-10-16T00:17:46.459Z,0
2017-10-16T00:18:46.486Z,0
2017-10-16T00:19:46.112Z,0
2017-10-16T00:20:46.428Z,0
2017-10-16T00:21:46.422Z,0
2017-10-16T00:22:46.417Z,0
2017-10-16T00:23:46.073Z,0
2017-10-16T00:24:46.399Z,0
2017-10-16T00:25:45.729Z,0
2017-10-16T00:26:46.383Z,0
2017-10-16T00:27:46.376Z,0
2017-10-16T00:28:46.366Z,0
2017-10-16T00:29:46.364Z,0
2017-10-16T00:30:46.024Z,0
2017-10-16T00:31:46.343Z,0
2017-10-16T00:32:46.349Z,0
2017-10-16T00:33:46.013Z,0
2017-10-16T00:34:46.317Z,0
2017-10-16T00:35:45.983Z,0
2017-10-16T00:36:45.978Z,0
2017-10-16T00:37:46.303Z,0
2017-10-16T00:38:46.286Z,0
2017-10-16T00:39:45.963Z,0
2017-10-16T00:40:45.964Z,0
2017-10-16T00:41:46.263Z,0
2017-10-16T00:42:45.922Z,0
2017-10-16T00:43:45.914Z,0
2017-10-16T00:44:46.236Z,0
2017-10-16T00:45:45.898Z,0
2017-10-16T00:46:46.224Z,0
2017-10-16T00:47:46.476Z,0
2017-10-16T00:48:46.216Z,0
2017-10-16T00:49:46.198Z,0
2017-10-16T00:50:45.862Z,0
2017-10-16T00:51:45.846Z,0
2017-10-16T00:52:45.853Z,0
2017-10-16T00:53:46.161Z,0
2017-10-16T00:54:45.826Z,0
2017-10-16T00:55:45.830Z,0
2017-10-16T00:56:46.141Z,0
2017-10-16T00:57:45.816Z,0
2017-10-16T00:58:45.830Z,0
2017-10-16T00:59:45.790Z,0
2017-10-16T01:00:45.782Z,0
2017-10-16T01:01:46.109Z,0
2017-10-16T01:02:45.759Z,0
2017-10-16T01:03:45.751Z,0
2017-10-16T01:04:46.077Z,0
2017-10-16T01:05:46.071Z,0
2017-10-16T01:06:46.064Z,0
2017-10-16T01:07:46.046Z,0
2017-10-16T01:08:45.718Z,0
2017-10-16T01:09:46.044Z,0
2017-10-16T01:10:46.034Z,0
2017-10-16T01:11:46.025Z,0
2017-10-16T01:12:46.012Z,0
2017-10-16T01:13:46.305Z,0
2017-10-16T01:14:46.033Z,0
2017-10-16T01:15:45.667Z,0
2017-10-16T01:16:45.993Z,0
2017-10-16T01:17:45.970Z,0
2017-10-16T01:18:46.230Z,0
2017-10-16T01:19:45.959Z,0
2017-10-16T01:20:45.280Z,0
2017-10-16T01:21:45.937Z,0
2017-10-16T01:22:45.593Z,0
2017-10-16T01:23:45.926Z,0
2017-10-16T01:24:45.918Z,0
2017-10-16T01:25:45.569Z,0
2017-10-16T01:26:45.235Z,0
2017-10-16T01:27:45.899Z,0
2017-10-16T01:28:45.549Z,0
2017-10-16T01:29:45.214Z,0
2017-10-16T01:30:45.869Z,0
2017-10-16T01:31:45.856Z,0
2017-10-16T01:32:45.852Z,0
2017-10-16T01:33:45.507Z,0
2017-10-16T01:34:45.529Z,0
2017-10-16T01:35:45.819Z,0
2017-10-16T01:36:45.475Z,0
2017-10-16T01:37:45.808Z,0
2017-10-16T01:38:45.138Z,0
2017-10-16T01:39:45.780Z,0
2017-10-16T01:40:45.441Z,0
2017-10-16T01:41:45.780Z,0
2017-10-16T01:42:45.098Z,0
2017-10-16T01:43:45.425Z,0
2017-10-16T01:44:45.741Z,0
2017-10-16T01:45:45.731Z,0
2017-10-16T01:46:45.399Z,0
2017-10-16T01:47:45.387Z,0
2017-10-16T01:48:45.374Z,0
2017-10-16T01:49:45.963Z,0
2017-10-16T01:50:45.695Z,0
2017-10-16T01:51:45.684Z,0
2017-10-16T01:52:45.684Z,0
2017-10-16T01:53:45.673Z,0
2017-10-16T01:54:45.335Z,0
2017-10-16T01:55:45.647Z,0
2017-10-16T01:56:45.643Z,0
2017-10-16T01:57:45.635Z,0
2017-10-16T01:58:45.296Z,0
2017-10-16T01:59:45.616Z,0
2017-10-16T02:00:45.274Z,0
2017-10-16T02:01:45.594Z,0
2017-10-16T02:02:45.592Z,0
2017-10-16T02:03:45.578Z,0
2017-10-16T02:04:45.574Z,0
2017-10-16T02:05:45.228Z,0
2017-10-16T02:06:45.555Z,0
2017-10-16T02:07:45.545Z,0
2017-10-16T02:08:45.543Z,0
2017-10-16T02:09:45.529Z,0
2017-10-16T02:10:45.522Z,0
2017-10-16T02:11:45.176Z,0
2017-10-16T02:12:45.502Z,0
2017-10-16T02:13:45.168Z,0
2017-10-16T02:14:45.486Z,0
2017-10-16T02:15:45.477Z,0
2017-10-16T02:16:45.471Z,0
2017-10-16T02:17:45.472Z,0
2017-10-16T02:18:45.122Z,0
2017-10-16T02:19:45.447Z,0
2017-10-16T02:20:45.104Z,0
2017-10-16T02:21:45.686Z,0
2017-10-16T02:22:45.085Z,0
2017-10-16T02:23:45.412Z,0
2017-10-16T02:24:45.396Z,0
2017-10-16T02:25:45.390Z,0
2017-10-16T02:26:45.389Z,0
2017-10-16T02:27:45.372Z,0
2017-10-16T02:28:45.400Z,0
2017-10-16T02:29:45.366Z,0
2017-10-16T02:30:45.353Z,0
2017-10-16T02:31:45.004Z,0
2017-10-16T02:32:45.331Z,0
2017-10-16T02:33:45.362Z,0
2017-10-16T02:34:44.981Z,0
2017-10-16T02:35:45.314Z,0
2017-10-16T02:36:45.297Z,0
2017-10-16T02:37:44.960Z,0
2017-10-16T02:38:44.948Z,0
2017-10-16T02:39:45.276Z,0
2017-10-16T02:40:45.273Z,0
2017-10-16T02:41:44.925Z,0
2017-10-16T02:42:45.253Z,0
2017-10-16T02:43:45.240Z,0
2017-10-16T02:44:44.893Z,0
2017-10-16T02:45:45.229Z,0
2017-10-16T02:46:45.209Z,0
2017-10-16T02:47:44.876Z,0
2017-10-16T02:48:45.209Z,0
2017-10-16T02:49:45.189Z,0
2017-10-16T02:50:45.184Z,0
2017-10-16T02:51:45.163Z,0
2017-10-16T02:52:45.404Z,0
2017-10-16T02:53:45.154Z,0
2017-10-16T02:54:45.136Z,0
2017-10-16T02:55:45.136Z,0
2017-10-16T02:56:44.792Z,0
2017-10-16T02:57:45.124Z,0
2017-10-16T02:58:45.107Z,0
2017-10-16T02:59:45.095Z,0
2017-10-16T03:00:45.085Z,0
2017-10-16T03:01:45.074Z,0
2017-10-16T03:02:45.097Z,0
2017-10-16T03:03:45.064Z,0
2017-10-16T03:04:45.053Z,0
2017-10-16T03:05:44.378Z,0
2017-10-16T03:06:44.364Z,0
2017-10-16T03:07:45.039Z,0
2017-10-16T03:08:45.031Z,0
2017-10-16T03:09:45.006Z,0
2017-10-16T03:10:44.663Z,0
2017-10-16T03:11:44.989Z,0
2017-10-16T03:12:44.981Z,0
2017-10-16T03:13:44.636Z,0
2017-10-16T03:14:44.967Z,0
2017-10-16T03:15:44.953Z,0
2017-10-16T03:16:44.608Z,0
2017-10-16T03:17:44.944Z,0
2017-10-16T03:18:44.934Z,0
2017-10-16T03:19:44.589Z,0
2017-10-16T03:20:44.908Z,0
2017-10-16T03:21:44.898Z,0
2017-10-16T03:22:44.892Z,0
2017-10-16T03:23:45.130Z,0
2017-10-16T03:24:44.923Z,0
2017-10-16T03:25:44.529Z,0
2017-10-16T03:26:44.522Z,0
2017-10-16T03:27:44.844Z,0
2017-10-16T03:28:44.602Z,0
2017-10-16T03:29:44.499Z,0
2017-10-16T03:30:44.494Z,0
2017-10-16T03:31:44.489Z,0
2017-10-16T03:32:44.800Z,0
2017-10-16T03:33:44.466Z,0
2017-10-16T03:34:44.453Z,0
2017-10-16T03:35:44.778Z,0
2017-10-16T03:36:44.439Z,0
2017-10-16T03:37:44.756Z,0
2017-10-16T03:38:44.414Z,0
2017-10-16T03:39:44.074Z,0
2017-10-16T03:40:44.728Z,0
2017-10-16T03:41:44.383Z,0
2017-10-16T03:42:44.710Z,0
2017-10-16T03:43:44.702Z,0
2017-10-16T03:44:44.360Z,0
2017-10-16T03:45:44.691Z,0
2017-10-16T03:46:44.672Z,0
2017-10-16T03:47:44.679Z,0
2017-10-16T03:48:44.654Z,0
2017-10-16T03:49:44.649Z,0
2017-10-16T03:50:44.641Z,0
2017-10-16T03:51:44.622Z,0
2017-10-16T03:52:44.630Z,0
2017-10-16T03:53:44.616Z,0
2017-10-16T03:54:44.860Z,0
2017-10-16T03:55:44.591Z,0
2017-10-16T03:56:44.583Z,0
2017-10-16T03:57:44.574Z,0
2017-10-16T03:58:44.565Z,0
2017-10-16T03:59:44.554Z,0
2017-10-16T04:00:44.548Z,0
2017-10-16T04:01:44.545Z,0
2017-10-16T04:02:43.527Z,0
2017-10-16T04:03:44.518Z,0
2017-10-16T04:04:44.170Z,0
2017-10-16T04:05:44.513Z,0
2017-10-16T04:06:44.503Z,0
2017-10-16T04:07:44.156Z,0
2017-10-16T04:08:44.475Z,0
2017-10-16T04:09:44.137Z,0
2017-10-16T04:10:44.478Z,0
2017-10-16T04:11:44.451Z,0
2017-10-16T04:12:44.447Z,0
2017-10-16T04:13:44.436Z,0
2017-10-16T04:14:44.426Z,0
2017-10-16T04:15:44.071Z,0
2017-10-16T04:16:44.400Z,0
2017-10-16T04:17:44.392Z,0
2017-10-16T04:18:44.066Z,0
2017-10-16T04:19:44.378Z,0
2017-10-16T04:20:44.367Z,0
2017-10-16T04:21:44.351Z,0
2017-10-16T04:22:44.343Z,0
2017-10-16T04:23:44.343Z,0
2017-10-16T04:24:44.323Z,0
2017-10-16T04:25:44.571Z,0
2017-10-16T04:26:43.982Z,0
2017-10-16T04:27:44.305Z,0
2017-10-16T04:28:44.291Z,0
2017-10-16T04:29:44.275Z,0
2017-10-16T04:30:43.943Z,0
2017-10-16T04:31:44.275Z,0
2017-10-16T04:32:43.593Z,0
2017-10-16T04:33:43.909Z,0
2017-10-16T04:34:44.232Z,0
2017-10-16T04:35:44.225Z,0
2017-10-16T04:36:43.885Z,0
2017-10-16T04:37:44.205Z,0
2017-10-16T04:38:43.868Z,0
2017-10-16T04:39:44.188Z,0
2017-10-16T04:40:43.841Z,0
2017-10-16T04:41:44.169Z,0
2017-10-16T04:42:44.159Z,0
2017-10-16T04:43:44.155Z,0
2017-10-16T04:44:43.819Z,0
2017-10-16T04:45:44.137Z,0
2017-10-16T04:46:44.126Z,0
2017-10-16T04:47:43.781Z,0
2017-10-16T04:48:44.109Z,0
2017-10-16T04:49:44.103Z,0
2017-10-16T04:50:44.097Z,0
2017-10-16T04:51:44.077Z,0
2017-10-16T04:52:44.078Z,0
2017-10-16T04:53:44.071Z,0
2017-10-16T04:54:43.728Z,0
2017-10-16T04:55:44.050Z,0
2017-10-16T04:56:44.337Z,0
2017-10-16T04:57:44.036Z,0
2017-10-16T04:58:44.021Z,0
2017-10-16T04:59:44.014Z,0
2017-10-16T05:00:44.015Z,0
2017-10-16T05:01:43.999Z,0
2017-10-16T05:02:43.322Z,0
2017-10-16T05:03:43.984Z,0
2017-10-16T05:04:43.660Z,0
2017-10-16T05:05:43.625Z,0
2017-10-16T05:06:43.944Z,0
2017-10-16T05:07:43.956Z,0
2017-10-16T05:08:43.592Z,0
2017-10-16T05:09:44.120Z,0
2017-10-16T05:10:43.581Z,0
2017-10-16T05:11:43.567Z,0
2017-10-16T05:12:43.897Z,0
2017-10-16T05:13:43.890Z,0
2017-10-16T05:14:43.909Z,0
2017-10-16T05:15:43.870Z,0
2017-10-16T05:16:43.526Z,0
2017-10-16T05:17:43.854Z,0
2017-10-16T05:18:43.505Z,0
2017-10-16T05:19:43.837Z,0
2017-10-16T05:20:43.829Z,0
2017-10-16T05:21:43.480Z,5
2017-10-16T05:22:43.840Z,5
2017-10-16T05:23:43.467Z,5
2017-10-16T05:24:43.457Z,5
2017-10-16T05:25:43.781Z,5
2017-10-16T05:26:43.436Z,5
2017-10-16T05:27:43.354Z,10
2017-10-16T05:28:43.091Z,10
2017-10-16T05:29:43.422Z,10
2017-10-16T05:30:43.404Z,10
2017-10-16T05:31:43.064Z,10
2017-10-16T05:32:43.386Z,15
2017-10-16T05:33:43.707Z,15
2017-10-16T05:34:43.712Z,15
2017-10-16T05:35:43.360Z,15
2017-10-16T05:36:43.350Z,20
2017-10-16T05:37:43.680Z,20
2017-10-16T05:38:43.338Z,20
2017-10-16T05:39:42.994Z,25
2017-10-16T05:40:43.322Z,25
2017-10-16T05:41:43.646Z,25
2017-10-16T05:42:43.662Z,30
2017-10-16T05:43:43.933Z,30
2017-10-16T05:44:43.638Z,35
2017-10-16T05:45:43.280Z,35
2017-10-16T05:46:43.606Z,35
2017-10-16T05:47:43.596Z,40
2017-10-16T05:48:43.582Z,40
2017-10-16T05:49:43.249Z,45
2017-10-16T05:50:43.589Z,45
2017-10-16T05:51:43.559Z,45
2017-10-16T05:52:43.253Z,50
2017-10-16T05:53:43.230Z,50
2017-10-16T05:54:43.538Z,55
2017-10-16T05:55:43.533Z,55
2017-10-16T05:56:43.526Z,55
2017-10-16T05:57:43.503Z,60
2017-10-16T05:58:42.834Z,60
2017-10-16T05:59:43.410Z,65
2017-10-16T06:00:43.482Z,65
2017-10-16T06:01:43.138Z,70
2017-10-16T06:02:43.470Z,70
2017-10-16T06:03:43.125Z,85
2017-10-16T06:04:43.446Z,90
2017-10-16T06:05:43.113Z,95
2017-10-16T06:06:43.112Z,100
2017-10-16T06:07:43.099Z,105
2017-10-16T06:08:43.418Z,115
2017-10-16T06:09:43.405Z,120
2017-10-16T06:10:43.061Z,125
2017-10-16T06:11:43.392Z,130
2017-10-16T06:12:43.384Z,135
2017-10-16T06:13:43.377Z,140
2017-10-16T06:14:43.377Z,145
2017-10-16T06:15:43.597Z,145
2017-10-16T06:16:43.021Z,150
2017-10-16T06:17:43.014Z,155
2017-10-16T06:18:43.338Z,160
2017-10-16T06:19:43.340Z,165
2017-10-16T06:20:42.990Z,170
2017-10-16T06:21:43.337Z,165
2017-10-16T06:22:43.319Z,175
2017-10-16T06:23:43.305Z,180
2017-10-16T06:24:42.963Z,185
2017-10-16T06:25:43.288Z,185
2017-10-16T06:26:43.284Z,195
2017-10-16T06:27:43.285Z,200
2017-10-16T06:28:42.942Z,200
2017-10-16T06:29:42.931Z,205
2017-10-16T06:30:43.518Z,205
2017-10-16T06:31:43.253Z,210
2017-10-16T06:32:43.243Z,210
2017-10-16T06:33:43.240Z,215
2017-10-16T06:34:43.239Z,220
2017-10-16T06:35:42.898Z,225
2017-10-16T06:36:42.893Z,230
2017-10-16T06:37:42.886Z,230
2017-10-16T06:38:42.545Z,235
2017-10-16T06:39:43.211Z,240
2017-10-16T06:40:43.202Z,245
2017-10-16T06:41:43.206Z,245
2017-10-16T06:42:42.861Z,250
2017-10-16T06:43:43.198Z,250
2017-10-16T06:44:43.193Z,255
2017-10-16T06:45:43.179Z,260
2017-10-16T06:46:43.176Z,260
2017-10-16T06:47:43.182Z,265
2017-10-16T06:48:43.171Z,270
2017-10-16T06:49:43.182Z,275
2017-10-16T06:50:42.831Z,285
2017-10-16T06:51:43.158Z,290
2017-10-16T06:52:43.145Z,290
2017-10-16T06:53:43.147Z,295
2017-10-16T06:54:42.810Z,300
2017-10-16T06:55:43.140Z,305
2017-10-16T06:56:43.135Z,305
2017-10-16T06:57:43.140Z,310
2017-10-16T06:58:43.125Z,310
2017-10-16T06:59:43.132Z,310
2017-10-16T07:00:42.784Z,310
2017-10-16T07:01:43.032Z,315
2017-10-16T07:02:43.114Z,325
2017-10-16T07:03:43.116Z,325
2017-10-16T07:04:43.111Z,325
2017-10-16T07:05:42.780Z,330
2017-10-16T07:06:43.102Z,340
2017-10-16T07:07:43.094Z,340
2017-10-16T07:08:43.090Z,345
2017-10-16T07:09:43.084Z,345
2017-10-16T07:10:43.088Z,345
2017-10-16T07:11:43.079Z,345
2017-10-16T07:12:42.756Z,350
2017-10-16T07:13:43.074Z,355
2017-10-16T07:14:43.070Z,365
2017-10-16T07:15:43.070Z,375
2017-10-16T07:16:43.058Z,395
2017-10-16T07:17:42.729Z,395
2017-10-16T07:18:43.103Z,400
2017-10-16T07:19:42.737Z,405
2017-10-16T07:20:42.729Z,410
2017-10-16T07:21:42.733Z,420
2017-10-16T07:22:42.714Z,420
2017-10-16T07:23:42.707Z,425
2017-10-16T07:24:43.045Z,425
2017-10-16T07:25:42.713Z,430
2017-10-16T07:26:43.038Z,440
2017-10-16T07:27:43.028Z,435
2017-10-16T07:28:43.023Z,325
2017-10-16T07:29:43.252Z,200
2017-10-16T07:30:43.026Z,180
2017-10-16T07:31:42.698Z,175
2017-10-16T07:32:43.269Z,175
2017-10-16T07:33:43.011Z,175
2017-10-16T07:34:43.011Z,175
2017-10-16T07:35:43.009Z,175
2017-10-16T07:36:42.671Z,175
2017-10-16T07:37:43.000Z,175
2017-10-16T07:38:42.659Z,180
2017-10-16T07:39:43.002Z,180
2017-10-16T07:40:43.003Z,180
2017-10-16T07:41:42.984Z,180
2017-10-16T07:42:42.978Z,180
2017-10-16T07:43:42.682Z,180
2017-10-16T07:44:42.868Z,180
2017-10-16T07:45:42.962Z,185
2017-10-16T07:46:42.965Z,185
2017-10-16T07:47:43.174Z,185
2017-10-16T07:48:42.954Z,185
2017-10-16T07:49:42.623Z,185
2017-10-16T07:50:42.621Z,185
2017-10-16T07:51:42.955Z,185
2017-10-16T07:52:41.945Z,185
2017-10-16T07:53:42.947Z,185
2017-10-16T07:54:42.941Z,185
2017-10-16T07:55:42.943Z,185
2017-10-16T07:56:42.595Z,185
2017-10-16T07:57:43.134Z,185
2017-10-16T07:58:42.928Z,185
2017-10-16T07:59:42.581Z,185
2017-10-16T08:00:42.911Z,185
2017-10-16T08:01:42.564Z,185
2017-10-16T08:02:42.561Z,185
2017-10-16T08:03:43.141Z,185
2017-10-16T08:04:42.886Z,185
2017-10-16T08:05:42.874Z,185
2017-10-16T08:06:42.881Z,185
2017-10-16T08:07:42.871Z,185
2017-10-16T08:08:42.526Z,185
2017-10-16T08:09:42.857Z,185
2017-10-16T08:10:42.850Z,185
2017-10-16T08:11:42.516Z,185
2017-10-16T08:12:42.852Z,185
2017-10-16T08:13:42.502Z,185
2017-10-16T08:14:42.500Z,185
2017-10-16T08:15:42.829Z,185
2017-10-16T08:16:42.828Z,185
2017-10-16T08:17:42.488Z,185
2017-10-16T08:18:42.484Z,185
2017-10-16T08:19:42.468Z,185
2017-10-16T08:20:42.799Z,185
2017-10-16T08:21:42.465Z,185
2017-10-16T08:22:42.467Z,185
2017-10-16T08:23:42.792Z,185
2017-10-16T08:24:42.783Z,185
2017-10-16T08:25:42.782Z,185
2017-10-16T08:26:42.769Z,185
2017-10-16T08:27:42.774Z,185
2017-10-16T08:28:42.426Z,185
2017-10-16T08:29:41.756Z,185
2017-10-16T08:30:42.753Z,185
2017-10-16T08:31:42.746Z,185
2017-10-16T08:32:42.424Z,185
2017-10-16T08:33:42.431Z,185
2017-10-16T08:34:42.398Z,185
2017-10-16T08:35:42.264Z,185
2017-10-16T08:36:42.393Z,185
2017-10-16T08:37:43.091Z,185
2017-10-16T08:38:42.710Z,185
2017-10-16T08:39:42.573Z,190
2017-10-16T08:40:42.705Z,190
2017-10-16T08:41:41.697Z,185
2017-10-16T08:42:42.455Z,185
2017-10-16T08:43:42.686Z,185
2017-10-16T08:44:42.345Z,185
2017-10-16T08:45:42.905Z,185
2017-10-16T08:46:42.547Z,185
2017-10-16T08:47:42.332Z,185
2017-10-16T08:48:42.915Z,185
2017-10-16T08:49:42.659Z,185
2017-10-16T08:50:42.323Z,185
2017-10-16T08:51:42.181Z,185
2017-10-16T08:52:42.641Z,185
2017-10-16T08:53:42.750Z,185
2017-10-16T08:54:41.971Z,185
2017-10-16T08:55:42.667Z,185
2017-10-16T08:56:42.619Z,185
2017-10-16T08:57:41.957Z,185
2017-10-16T08:58:41.947Z,185
2017-10-16T08:59:42.303Z,185
2017-10-16T09:00:42.285Z,185
2017-10-16T09:01:42.486Z,185
2017-10-16T09:02:42.257Z,185
2017-10-16T09:03:42.261Z,185
2017-10-16T09:04:42.258Z,185
2017-10-16T09:05:42.583Z,185
2017-10-16T09:06:42.582Z,185
2017-10-16T09:07:42.576Z,185
2017-10-16T09:08:42.498Z,185
2017-10-16T09:09:42.558Z,180
2017-10-16T09:10:42.553Z,185
2017-10-16T09:11:42.228Z,180
2017-10-16T09:12:42.599Z,180
2017-10-16T09:13:42.212Z,180
2017-10-16T09:14:42.541Z,180
2017-10-16T09:15:42.198Z,180
2017-10-16T09:16:42.403Z,180
2017-10-16T09:17:41.863Z,180
2017-10-16T09:18:42.192Z,180
2017-10-16T09:19:42.192Z,180
2017-10-16T09:20:43.188Z,180
2017-10-16T09:21:41.844Z,180
2017-10-16T09:22:42.505Z,180
2017-10-16T09:23:42.510Z,180
2017-10-16T09:24:42.162Z,180
2017-10-16T09:25:41.830Z,180
2017-10-16T09:26:42.482Z,180
2017-10-16T09:27:41.487Z,180
2017-10-16T09:28:42.487Z,180
2017-10-16T09:29:42.472Z,185
2017-10-16T09:30:41.800Z,185
2017-10-16T09:31:42.020Z,180
2017-10-16T09:32:42.456Z,180
2017-10-16T09:33:42.127Z,180
2017-10-16T09:34:42.474Z,185
2017-10-16T09:35:42.446Z,180
2017-10-16T09:36:42.440Z,180
2017-10-16T09:37:42.109Z,180
2017-10-16T09:38:42.431Z,185
2017-10-16T09:39:42.099Z,185
2017-10-16T09:40:41.776Z,180
2017-10-16T09:41:41.464Z,180
2017-10-16T09:42:42.086Z,180
2017-10-16T09:43:42.079Z,180
2017-10-16T09:44:42.079Z,180
2017-10-16T09:45:42.404Z,180
2017-10-16T09:46:42.630Z,180
2017-10-16T09:47:42.600Z,180
2017-10-16T09:48:42.820Z,180
2017-10-16T09:49:42.059Z,180
2017-10-16T09:50:42.252Z,180
2017-10-16T09:51:42.060Z,180
2017-10-16T09:52:41.715Z,180
2017-10-16T09:53:42.379Z,180
2017-10-16T09:54:42.039Z,180
2017-10-16T09:55:42.373Z,180
2017-10-16T09:56:42.379Z,175
2017-10-16T09:57:42.458Z,175
2017-10-16T09:58:42.233Z,175
2017-10-16T09:59:42.354Z,175
2017-10-16T10:00:42.010Z,175
2017-10-16T10:01:42.351Z,175
2017-10-16T10:02:42.009Z,175
2017-10-16T10:03:41.677Z,175
2017-10-16T10:04:42.338Z,175
2017-10-16T10:05:41.675Z,175
2017-10-16T10:06:42.348Z,175
2017-10-16T10:07:42.332Z,175
2017-10-16T10:08:42.330Z,175
2017-10-16T10:09:42.188Z,175
2017-10-16T10:10:41.981Z,175
2017-10-16T10:11:42.309Z,175
2017-10-16T10:12:41.977Z,175
2017-10-16T10:13:42.218Z,175
2017-10-16T10:14:42.294Z,175
2017-10-16T10:15:41.970Z,175
2017-10-16T10:16:42.293Z,175
2017-10-16T10:17:41.962Z,175
2017-10-16T10:18:41.958Z,175
2017-10-16T10:19:42.285Z,175
2017-10-16T10:20:42.278Z,175
2017-10-16T10:21:42.286Z,175
2017-10-16T10:22:41.973Z,175
2017-10-16T10:23:42.275Z,175
2017-10-16T10:24:42.267Z,175
2017-10-16T10:25:41.928Z,175
2017-10-16T10:26:41.936Z,175
2017-10-16T10:27:41.919Z,175
2017-10-16T10:28:42.252Z,175
2017-10-16T10:29:41.591Z,175
2017-10-16T10:30:41.917Z,175
2017-10-16T10:31:41.913Z,175
2017-10-16T10:32:41.910Z,175
2017-10-16T10:33:42.237Z,175
2017-10-16T10:34:42.236Z,175
2017-10-16T10:35:42.234Z,175
2017-10-16T10:36:41.564Z,175
2017-10-16T10:37:42.220Z,175
2017-10-16T10:38:41.905Z,175
2017-10-16T10:39:42.688Z,175
2017-10-16T10:40:42.216Z,175
2017-10-16T10:41:41.567Z,175
2017-10-16T10:42:42.434Z,175
2017-10-16T10:43:42.208Z,175
2017-10-16T10:44:42.129Z,175
2017-10-16T10:45:42.204Z,175
2017-10-16T10:46:42.204Z,175
2017-10-16T10:47:41.532Z,175
2017-10-16T10:48:41.857Z,175
2017-10-16T10:49:42.192Z,175
2017-10-16T10:50:42.195Z,175
2017-10-16T10:51:41.857Z,175
2017-10-16T10:52:42.186Z,175
2017-10-16T10:53:41.882Z,175
2017-10-16T10:54:42.180Z,175
2017-10-16T10:55:42.185Z,175
2017-10-16T10:56:41.837Z,175
2017-10-16T10:57:42.173Z,175
2017-10-16T10:58:41.875Z,170
2017-10-16T10:59:42.157Z,170
2017-10-16T11:00:42.155Z,170
2017-10-16T11:01:41.823Z,170
2017-10-16T11:02:42.159Z,175
2017-10-16T11:03:42.148Z,175
2017-10-16T11:04:41.818Z,170
2017-10-16T11:05:42.161Z,170
2017-10-16T11:06:42.145Z,170
2017-10-16T11:07:41.477Z,170
2017-10-16T11:08:42.138Z,170
2017-10-16T11:09:41.807Z,170
2017-10-16T11:10:42.142Z,170
2017-10-16T11:11:42.135Z,170
2017-10-16T11:12:41.806Z,170
2017-10-16T11:13:41.803Z,170
2017-10-16T11:14:42.149Z,170
2017-10-16T11:15:42.123Z,170
2017-10-16T11:16:42.121Z,170
2017-10-16T11:17:41.805Z,170
2017-10-16T11:18:41.788Z,170
2017-10-16T11:19:42.128Z,170
2017-10-16T11:20:41.780Z,170
2017-10-16T11:21:41.774Z,170
2017-10-16T11:22:42.111Z,170
2017-10-16T11:23:42.099Z,170
2017-10-16T11:24:41.780Z,170
2017-10-16T11:25:42.108Z,170
2017-10-16T11:26:42.108Z,170
2017-10-16T11:27:42.091Z,170
2017-10-16T11:28:41.762Z,170
2017-10-16T11:29:42.503Z,170
2017-10-16T11:30:42.089Z,170
2017-10-16T11:31:42.315Z,170
2017-10-16T11:32:42.482Z,170
2017-10-16T11:33:42.080Z,170
2017-10-16T11:34:41.754Z,170
2017-10-16T11:35:41.415Z,170
2017-10-16T11:36:42.084Z,170
2017-10-16T11:37:41.409Z,170
2017-10-16T11:38:41.750Z,170
2017-10-16T11:39:41.740Z,170
2017-10-16T11:40:42.068Z,170
2017-10-16T11:41:41.738Z,170
2017-10-16T11:42:42.065Z,170
2017-10-16T11:43:42.078Z,170
2017-10-16T11:44:41.727Z,170
2017-10-16T11:45:42.061Z,170
2017-10-16T11:46:41.396Z,170
2017-10-16T11:47:42.067Z,170
2017-10-16T11:48:41.754Z,170
2017-10-16T11:49:42.250Z,170
2017-10-16T11:50:42.293Z,170
2017-10-16T11:51:41.918Z,170
2017-10-16T11:52:42.624Z,170
2017-10-16T11:53:41.943Z,170
2017-10-16T11:54:41.383Z,170
2017-10-16T11:55:42.237Z,170
2017-10-16T11:56:41.707Z,170
2017-10-16T11:57:41.706Z,170
2017-10-16T11:58:42.034Z,170
2017-10-16T11:59:42.044Z,170
2017-10-16T12:00:42.028Z,170
2017-10-16T12:01:42.258Z,170
2017-10-16T12:02:42.048Z,170
2017-10-16T12:03:41.692Z,170
2017-10-16T12:04:41.693Z,170
2017-10-16T12:05:42.032Z,165
2017-10-16T12:06:42.025Z,165
2017-10-16T12:07:42.358Z,165
2017-10-16T12:08:42.019Z,165
2017-10-16T12:09:41.682Z,165
2017-10-16T12:10:41.682Z,165
2017-10-16T12:11:41.680Z,165
2017-10-16T12:12:42.587Z,165
2017-10-16T12:13:42.228Z,165
2017-10-16T12:14:42.014Z,165
2017-10-16T12:15:41.905Z,165
2017-10-16T12:16:41.672Z,165
2017-10-16T12:17:41.997Z,165
2017-10-16T12:18:41.003Z,165
2017-10-16T12:19:41.998Z,165
2017-10-16T12:20:42.417Z,165
2017-10-16T12:21:41.668Z,165
2017-10-16T12:22:42.225Z,165
2017-10-16T12:23:42.029Z,165
2017-10-16T12:24:41.666Z,165
2017-10-16T12:25:41.650Z,165
2017-10-16T12:26:41.320Z,160
2017-10-16T12:27:41.557Z,160
2017-10-16T12:28:40.989Z,160
2017-10-16T12:29:41.653Z,160
2017-10-16T12:30:41.184Z,160
2017-10-16T12:31:41.648Z,160
2017-10-16T12:32:43.247Z,160
2017-10-16T12:33:41.977Z,160
2017-10-16T12:34:41.641Z,160
2017-10-16T12:35:41.641Z,160
2017-10-16T12:36:41.646Z,160
2017-10-16T12:37:41.971Z,160
2017-10-16T12:38:41.972Z,160
2017-10-16T12:39:41.976Z,160
2017-10-16T12:40:41.641Z,160
2017-10-16T12:41:41.973Z,160
2017-10-16T12:42:41.632Z,160
2017-10-16T12:43:41.965Z,160
2017-10-16T12:44:41.962Z,160
2017-10-16T12:45:41.623Z,160
2017-10-16T12:46:41.621Z,160
2017-10-16T12:47:41.966Z,160
2017-10-16T12:48:41.958Z,160
2017-10-16T12:49:41.630Z,160
2017-10-16T12:50:41.970Z,160
2017-10-16T12:51:41.629Z,160
2017-10-16T12:52:41.990Z,160
2017-10-16T12:53:41.611Z,160
2017-10-16T12:54:41.612Z,160
2017-10-16T12:55:41.955Z,160
2017-10-16T12:56:41.941Z,155
2017-10-16T12:57:41.609Z,155
2017-10-16T12:58:41.942Z,155
2017-10-16T12:59:41.947Z,155
2017-10-16T13:00:41.959Z,155
2017-10-16T13:01:41.935Z,155
2017-10-16T13:02:41.950Z,155
2017-10-16T13:03:41.600Z,155
2017-10-16T13:04:41.602Z,155
2017-10-16T13:05:41.605Z,155
2017-10-16T13:06:41.943Z,155
2017-10-16T13:07:41.947Z,155
2017-10-16T13:08:41.933Z,155
2017-10-16T13:09:41.925Z,155
2017-10-16T13:10:41.931Z,155
2017-10-16T13:11:41.923Z,155
2017-10-16T13:12:41.925Z,160
2017-10-16T13:13:41.920Z,160
2017-10-16T13:14:41.591Z,160
2017-10-16T13:15:42.325Z,160
2017-10-16T13:16:42.145Z,160
2017-10-16T13:17:41.587Z,160
2017-10-16T13:18:41.958Z,160
2017-10-16T13:19:41.608Z,160
2017-10-16T13:20:41.909Z,160
2017-10-16T13:21:41.952Z,160
2017-10-16T13:22:41.912Z,160
2017-10-16T13:23:41.912Z,160
2017-10-16T13:24:41.571Z,160
2017-10-16T13:25:41.577Z,165
2017-10-16T13:26:41.910Z,165
2017-10-16T13:27:41.913Z,165
2017-10-16T13:28:41.568Z,165
2017-10-16T13:29:41.602Z,165
2017-10-16T13:30:41.564Z,165
2017-10-16T13:31:41.901Z,165
2017-10-16T13:32:41.566Z,165
2017-10-16T13:33:41.921Z,160
2017-10-16T13:34:41.555Z,160
2017-10-16T13:35:41.604Z,160
2017-10-16T13:36:41.890Z,160
2017-10-16T13:37:41.241Z,160
2017-10-16T13:38:43.089Z,160
2017-10-16T13:39:41.886Z,160
2017-10-16T13:40:41.556Z,160
2017-10-16T13:41:41.881Z,160
2017-10-16T13:42:41.884Z,160
2017-10-16T13:43:41.883Z,155
2017-10-16T13:44:41.542Z,155
2017-10-16T13:45:41.546Z,155
2017-10-16T13:46:41.871Z,155
2017-10-16T13:47:41.871Z,155
2017-10-16T13:48:41.592Z,155
2017-10-16T13:49:41.538Z,155
2017-10-16T13:50:41.870Z,155
2017-10-16T13:51:41.537Z,155
2017-10-16T13:52:41.532Z,155
2017-10-16T13:53:41.865Z,155
2017-10-16T13:54:41.874Z,155
2017-10-16T13:55:41.529Z,155
2017-10-16T13:56:41.526Z,155
2017-10-16T13:57:41.856Z,155
2017-10-16T13:58:41.874Z,155
2017-10-16T13:59:41.859Z,150
2017-10-16T14:00:41.524Z,150
2017-10-16T14:01:41.855Z,150
2017-10-16T14:02:41.185Z,150
2017-10-16T14:03:41.524Z,150
2017-10-16T14:04:41.850Z,150
2017-10-16T14:05:41.854Z,150
2017-10-16T14:06:41.853Z,150
2017-10-16T14:07:41.837Z,150
2017-10-16T14:08:41.868Z,145
2017-10-16T14:09:41.841Z,145